Time;durP1;ratioP1;P1;durP2;ratioP2;P2;SDS_P1;SDS_P2;PMS_P1;PMS_P2;Temp;Humidity;BMP_temperature;BMP_pressure;BME280_temperature;BME280_humidity;BME280_pressure;Samples;Min_cycle;Max_cycle;Signal;HPM_P1;HPM_P2
2023/12/21 00:01:38;;;;;;;1.65;0.65;;;4.80;99.90;;;4.06;100.00;97022.63;5007969;28;20030;-37
2023/12/21 00:04:04;;;;;;;1.33;0.70;;;4.80;99.90;;;4.08;100.00;97013.03;5009812;28;20531;-38
2023/12/21 00:06:30;;;;;;;2.30;0.50;;;4.90;99.90;;;4.08;100.00;97009.56;5003944;28;20431;-37
2023/12/21 00:08:56;;;;;;;2.33;0.60;;;4.90;99.90;;;4.08;100.00;97012.19;5004263;28;20072;-37
2023/12/21 00:11:22;;;;;;;2.33;0.60;;;4.90;99.90;;;4.09;100.00;97016.50;5011913;28;20033;-37
2023/12/21 00:13:48;;;;;;;1.40;0.68;;;4.90;99.90;;;4.10;100.00;97007.78;5012671;28;20041;-37
2023/12/21 00:16:14;;;;;;;1.60;0.50;;;4.90;99.90;;;4.11;100.00;96997.31;5009530;28;20034;-37
2023/12/21 00:18:40;;;;;;;1.10;0.43;;;4.90;99.90;;;4.14;100.00;96999.84;5011491;28;20075;-37
2023/12/21 00:21:06;;;;;;;1.98;0.70;;;4.90;99.90;;;4.18;100.00;97000.66;4994647;28;20034;-37
2023/12/21 00:23:32;;;;;;;0.73;0.50;;;5.00;99.90;;;4.14;100.00;96997.25;5007196;28;20061;-37
2023/12/21 00:25:58;;;;;;;2.15;0.40;;;4.90;99.90;;;4.09;100.00;96987.78;5007717;28;20452;-37
2023/12/21 00:28:23;;;;;;;0.88;0.45;;;4.90;99.90;;;4.09;100.00;96975.63;5012512;28;20021;-36
2023/12/21 00:30:49;;;;;;;1.17;0.60;;;4.90;99.90;;;4.08;100.00;96973.88;5007196;28;20040;-37
2023/12/21 00:33:15;;;;;;;0.43;0.30;;;4.90;99.90;;;4.07;100.00;96969.53;5009675;28;20465;-37
2023/12/21 00:35:41;;;;;;;1.55;0.50;;;4.90;99.90;;;4.04;100.00;96967.00;4998242;28;20734;-37
2023/12/21 00:38:06;;;;;;;1.65;0.50;;;4.90;99.90;;;4.04;100.00;96963.50;5009443;28;20041;-37
2023/12/21 00:40:32;;;;;;;1.23;0.55;;;4.90;99.90;;;4.03;100.00;96974.84;5004910;28;20400;-38
2023/12/21 00:42:58;;;;;;;0.50;0.30;;;4.80;99.90;;;4.01;100.00;96975.72;5002074;28;20116;-37
2023/12/21 00:45:25;;;;;;;1.38;0.40;;;4.80;99.90;;;4.00;100.00;96952.28;5003828;28;20085;-37
2023/12/21 00:47:50;;;;;;;0.30;0.30;;;4.80;99.90;;;4.07;100.00;96968.69;4988520;28;20187;-37
2023/12/21 00:50:16;;;;;;;0.90;0.30;;;4.90;99.90;;;4.06;100.00;96962.63;5010565;28;20079;-38
2023/12/21 00:52:42;;;;;;;0.60;0.30;;;4.90;99.90;;;4.09;100.00;96972.13;5005841;28;20073;-37
2023/12/21 00:55:08;;;;;;;0.65;0.30;;;4.90;99.90;;;4.09;100.00;96974.72;5009623;28;20087;-37
2023/12/21 00:57:34;;;;;;;0.50;0.32;;;4.90;99.90;;;4.10;100.00;96966.03;5011058;28;20033;-37
2023/12/21 00:59:59;;;;;;;0.40;0.20;;;4.90;99.90;;;4.08;100.00;96962.59;5008486;28;20056;-37
2023/12/21 01:02:25;;;;;;;0.20;0.20;;;4.90;99.90;;;4.06;100.00;96954.78;5007868;28;20079;-37
2023/12/21 01:04:51;;;;;;;0.60;0.20;;;4.90;99.90;;;4.08;100.00;96946.94;5013216;28;20338;-38
2023/12/21 01:07:17;;;;;;;1.20;0.20;;;4.90;99.90;;;4.13;100.00;96943.34;5005754;28;20442;-37
2023/12/21 01:09:43;;;;;;;0.32;0.30;;;4.90;99.90;;;4.08;100.00;96947.78;4990114;28;20111;-37
2023/12/21 01:12:09;;;;;;;1.08;0.40;;;4.90;99.90;;;4.07;100.00;96939.97;5003800;28;20458;-38
2023/12/21 01:14:35;;;;;;;1.75;0.30;;;4.90;99.90;;;4.11;100.00;96941.63;4988790;28;20530;-37
2023/12/21 01:17:01;;;;;;;1.10;0.20;;;4.90;99.90;;;4.10;100.00;96934.72;5007118;28;20108;-37
2023/12/21 01:19:26;;;;;;;0.52;0.20;;;4.90;99.90;;;4.14;100.00;96928.53;5007607;28;20132;-37
2023/12/21 01:21:53;;;;;;;0.68;0.30;;;4.90;99.90;;;4.13;100.00;96919.84;5006595;28;20607;-38
2023/12/21 01:24:18;;;;;;;0.20;0.20;;;4.90;99.90;;;4.12;100.00;96907.69;5014997;28;20029;-38
2023/12/21 01:26:44;;;;;;;2.25;0.50;;;4.90;99.90;;;4.08;100.00;96903.44;5011219;28;20044;-37
2023/12/21 01:29:10;;;;;;;0.95;0.45;;;4.90;99.90;;;4.10;100.00;96906.00;5010591;28;20029;-37
2023/12/21 01:31:36;;;;;;;0.65;0.30;;;4.90;99.90;;;4.13;100.00;96914.63;5010361;28;20067;-38
2023/12/21 01:34:05;;;;;;;0.25;0.20;;;5.00;99.90;;;4.15;100.00;96920.69;5010030;28;20128;-37
2023/12/21 01:36:30;;;;;;;0.28;0.20;;;4.90;99.90;;;4.20;100.00;96912.78;5010595;28;20026;-37
2023/12/21 01:38:56;;;;;;;0.63;0.32;;;5.00;99.90;;;4.20;100.00;96918.00;5013504;28;20034;-40
2023/12/21 01:41:23;;;;;;;0.50;0.30;;;5.00;99.90;;;4.18;100.00;96912.81;5010578;28;20087;-37
2023/12/21 01:43:49;;;;;;;0.20;0.20;;;5.00;99.90;;;4.17;100.00;96911.06;5011146;28;20038;-37
2023/12/21 01:46:15;;;;;;;0.70;0.40;;;5.00;99.90;;;4.16;100.00;96913.72;5012758;28;20545;-38
2023/12/21 01:48:42;;;;;;;1.00;0.30;;;5.00;99.90;;;4.18;100.00;96915.41;5008873;28;20113;-38
2023/12/21 01:51:09;;;;;;;0.47;0.28;;;5.00;99.90;;;4.24;100.00;96887.47;4997876;28;20040;-38
2023/12/21 01:53:36;;;;;;;0.20;0.20;;;5.00;99.90;;;4.11;100.00;96874.66;5007351;28;20125;-38
2023/12/21 01:56:03;;;;;;;0.47;0.22;;;5.00;99.90;;;4.20;100.00;96884.91;5007624;28;20116;-37
2023/12/21 01:58:31;;;;;;;0.20;0.20;;;5.00;99.90;;;4.24;100.00;96877.88;5012052;28;20444;-37
2023/12/21 02:00:58;;;;;;;0.75;0.20;;;5.00;99.90;;;4.24;100.00;96859.63;5013081;28;20033;-37
2023/12/21 02:03:27;;;;;;;0.35;0.20;;;5.00;99.90;;;4.29;100.00;96864.72;5010673;28;20033;-38
2023/12/21 02:05:52;;;;;;;0.10;0.10;;;5.10;99.90;;;4.31;100.00;96868.19;5008826;28;20045;-38
2023/12/21 02:08:19;;;;;;;0.20;0.20;;;5.10;99.90;;;4.34;100.00;96860.28;5016003;28;20037;-39
2023/12/21 02:10:44;;;;;;;0.85;0.22;;;5.10;99.90;;;4.35;100.00;96864.63;4995365;28;20037;-37
2023/12/21 02:13:10;;;;;;;0.77;0.40;;;5.20;99.90;;;4.39;100.00;96869.72;5010986;28;20634;-37
2023/12/21 02:15:36;;;;;;;0.80;0.20;;;5.20;99.90;;;4.37;100.00;96834.97;5013824;28;20041;-37
2023/12/21 02:18:05;;;;;;;0.20;0.20;;;5.20;99.90;;;4.37;100.00;96832.34;4993726;28;20374;-37
2023/12/21 02:20:31;;;;;;;0.17;0.17;;;5.20;99.90;;;4.38;100.00;96839.31;5011932;28;20033;-38
2023/12/21 02:22:59;;;;;;;0.80;0.20;;;5.20;99.90;;;4.38;100.00;96826.25;4997785;28;20033;-37
2023/12/21 02:25:25;;;;;;;0.40;0.30;;;5.20;99.90;;;4.44;100.00;96843.53;5013647;28;20500;-38
2023/12/21 02:27:51;;;;;;;0.10;0.10;;;5.20;99.90;;;4.44;100.00;96822.66;5010640;28;20087;-37
2023/12/21 02:30:17;;;;;;;0.10;0.10;;;5.20;99.90;;;4.45;100.00;96821.78;5007247;28;20065;-39
2023/12/21 02:32:43;;;;;;;1.70;0.20;;;5.20;99.90;;;4.45;100.00;96802.59;5008864;28;20128;-38
2023/12/21 02:35:09;;;;;;;0.15;0.15;;;5.20;99.90;;;4.44;100.00;96785.25;5015904;28;20033;-37
2023/12/21 02:37:35;;;;;;;1.00;0.38;;;5.20;99.90;;;4.52;100.00;96797.22;5013648;28;20033;-37
2023/12/21 02:40:00;;;;;;;0.17;0.15;;;5.30;99.90;;;4.48;100.00;96785.13;4997336;28;20118;-39
2023/12/21 02:42:26;;;;;;;0.10;0.10;;;5.30;99.90;;;4.55;100.00;96794.53;4995213;28;20029;-38
2023/12/21 02:44:52;;;;;;;1.98;0.30;;;5.30;99.90;;;4.49;100.00;96793.84;5011894;28;20136;-37
2023/12/21 02:47:17;;;;;;;0.20;0.10;;;5.30;99.90;;;4.51;100.00;96786.81;4979596;28;20029;-37
2023/12/21 02:49:43;;;;;;;0.10;0.10;;;5.30;99.90;;;4.45;100.00;96787.81;4995887;28;20032;-37
2023/12/21 02:52:09;;;;;;;0.10;0.10;;;5.30;99.90;;;4.52;100.00;96780.69;5012494;28;20037;-39
2023/12/21 02:54:35;;;;;;;0.93;0.20;;;5.30;99.90;;;4.52;100.00;96772.84;5007596;28;20045;-38
2023/12/21 02:57:00;;;;;;;0.10;0.10;;;5.30;99.90;;;4.55;100.00;96770.19;5010887;28;20044;-37
2023/12/21 02:59:26;;;;;;;1.13;0.95;;;5.30;99.90;;;4.54;100.00;96729.28;5014228;28;20083;-36
2023/12/21 03:01:52;;;;;;;0.10;0.10;;;5.30;99.90;;;4.59;100.00;96757.03;4993101;28;20703;-37
2023/12/21 03:04:18;;;;;;;0.28;0.20;;;5.40;99.90;;;4.58;100.00;96751.84;4996407;28;20030;-37
2023/12/21 03:06:44;;;;;;;0.10;0.10;;;5.40;99.90;;;4.57;100.00;96737.03;5009885;28;20033;-36
2023/12/21 03:09:09;;;;;;;0.40;0.10;;;5.40;99.90;;;4.61;100.00;96722.16;5012920;28;20414;-36
2023/12/21 03:11:35;;;;;;;0.28;0.10;;;5.40;99.90;;;4.56;100.00;96735.34;5008783;28;20425;-36
2023/12/21 03:14:02;;;;;;;0.10;0.10;;;5.40;99.90;;;4.58;100.00;96730.94;5005226;28;20142;-36
2023/12/21 03:16:28;;;;;;;0.35;0.13;;;5.40;99.90;;;4.40;100.00;96683.47;5011567;28;20627;-36
2023/12/21 03:18:53;;;;;;;0.95;0.20;;;5.40;99.90;;;4.63;100.00;96734.31;5005601;28;20033;-38
2023/12/21 03:21:19;;;;;;;0.10;0.10;;;5.40;99.90;;;4.69;100.00;96731.53;4994480;28;20067;-36
2023/12/21 03:23:45;;;;;;;0.30;0.20;;;5.40;99.90;;;4.64;100.00;96725.56;5005911;28;20064;-36
2023/12/21 03:26:11;;;;;;;0.80;0.10;;;5.40;99.90;;;4.62;100.00;96719.53;5008542;28;20417;-36
2023/12/21 03:28:44;;;;;;;0.10;0.10;;;5.40;99.90;;;4.62;100.00;96726.50;5011109;28;20350;-37
2023/12/21 03:31:10;;;;;;;0.10;0.10;;;5.40;99.90;;;4.57;100.00;96732.69;5012767;28;20034;-37
2023/12/21 03:33:36;;;;;;;0.20;0.20;;;5.40;99.90;;;4.57;100.00;96722.22;5004268;28;20041;-37
2023/12/21 03:36:02;;;;;;;0.30;0.20;;;5.40;99.90;;;4.58;100.00;96730.94;5010771;28;20109;-37
2023/12/21 03:38:27;;;;;;;0.30;0.20;;;5.40;99.90;;;4.59;100.00;96712.63;5009261;28;20091;-37
2023/12/21 03:40:53;;;;;;;0.10;0.10;;;5.40;99.90;;;4.56;100.00;96710.09;5009765;28;20060;-37
2023/12/21 03:43:20;;;;;;;1.48;0.13;;;5.40;99.90;;;4.54;100.00;96709.28;4993841;28;20433;-37
2023/12/21 03:45:45;;;;;;;0.10;0.10;;;5.30;99.90;;;4.54;100.00;96706.66;5009008;28;20037;-37
2023/12/21 03:48:11;;;;;;;0.08;0.08;;;5.30;99.90;;;4.57;100.00;96706.56;5013320;28;20044;-37
2023/12/21 03:50:38;;;;;;;0.10;0.10;;;5.40;99.90;;;4.60;100.00;96723.94;5011027;28;20040;-37
2023/12/21 03:53:05;;;;;;;0.13;0.13;;;5.40;99.90;;;4.61;100.00;96725.63;5011935;28;20261;-37
2023/12/21 03:55:31;;;;;;;0.20;0.10;;;5.40;99.90;;;4.53;100.00;96709.31;4993701;28;20036;-37
2023/12/21 03:57:56;;;;;;;0.10;0.10;;;5.40;99.90;;;4.65;100.00;96727.28;5009959;28;20029;-37
2023/12/21 04:00:23;;;;;;;0.30;0.20;;;5.40;99.90;;;4.64;100.00;96727.31;5010818;28;20037;-37
2023/12/21 04:02:48;;;;;;;0.25;0.10;;;5.40;99.90;;;4.70;100.00;96711.50;5007427;28;20033;-38
2023/12/21 04:05:14;;;;;;;0.22;0.17;;;5.50;99.90;;;4.71;100.00;96695.78;5008255;28;20669;-37
2023/12/21 04:07:40;;;;;;;0.28;0.20;;;5.50;99.90;;;4.73;100.00;96682.69;5006418;28;20064;-37
2023/12/21 04:10:07;;;;;;;0.10;0.10;;;5.50;99.90;;;4.54;100.00;96692.72;5009368;28;20510;-37
2023/12/21 04:12:33;;;;;;;0.10;0.10;;;5.50;99.90;;;4.61;100.00;96699.50;5011135;28;20989;-37
2023/12/21 04:14:58;;;;;;;0.20;0.20;;;5.50;99.90;;;4.65;100.00;96690.72;5007628;28;20501;-36
2023/12/21 04:17:25;;;;;;;0.35;0.10;;;5.50;99.90;;;4.67;100.00;96694.16;5010646;28;20038;-37
2023/12/21 04:19:51;;;;;;;0.45;0.20;;;5.40;99.90;;;4.66;100.00;96694.19;5003305;28;20091;-37
2023/12/21 04:22:17;;;;;;;0.57;0.20;;;5.40;99.90;;;4.66;100.00;96691.56;5010360;28;20052;-36
2023/12/21 04:24:43;;;;;;;0.00;0.00;;;5.40;99.90;;;4.61;100.00;96694.28;5004809;28;20494;-37
2023/12/21 04:27:08;;;;;;;0.32;0.10;;;5.30;99.90;;;4.56;100.00;96683.13;5008563;28;20148;-37
2023/12/21 04:29:34;;;;;;;0.50;0.17;;;5.30;99.90;;;4.61;100.00;96660.34;5009185;28;20422;-37
2023/12/21 04:32:00;;;;;;;0.45;0.20;;;5.30;99.90;;;4.56;100.00;96670.06;5007909;28;20025;-37
2023/12/21 04:34:26;;;;;;;0.17;0.10;;;5.30;99.90;;;4.58;100.00;96670.88;5011271;28;20025;-38
2023/12/21 04:36:51;;;;;;;0.08;0.08;;;5.30;99.90;;;4.59;100.00;96662.13;5007720;28;20116;-37
2023/12/21 04:39:17;;;;;;;0.20;0.13;;;5.40;99.90;;;4.55;100.00;96670.94;5008516;28;20029;-37
2023/12/21 04:41:43;;;;;;;0.30;0.15;;;5.30;99.90;;;4.56;100.00;96662.22;5007659;28;20049;-37
2023/12/21 04:44:08;;;;;;;0.22;0.20;;;5.30;99.90;;;4.57;100.00;96667.38;5008234;28;20330;-37
2023/12/21 04:46:34;;;;;;;0.45;0.13;;;5.30;99.90;;;4.55;100.00;96650.06;5005144;28;20029;-37
2023/12/21 04:49:00;;;;;;;0.50;0.10;;;5.30;99.90;;;4.59;100.00;96644.72;5006659;28;20735;-37
2023/12/21 04:51:25;;;;;;;1.38;0.30;;;5.40;99.90;;;4.44;100.00;96619.00;5011858;28;20032;-37
2023/12/21 04:53:51;;;;;;;0.10;0.10;;;5.30;99.90;;;4.51;100.00;96640.59;5007818;28;20547;-37
2023/12/21 04:56:17;;;;;;;0.10;0.10;;;5.40;99.90;;;4.58;100.00;96655.22;5011761;28;20033;-37
2023/12/21 04:58:42;;;;;;;0.50;0.10;;;5.40;99.90;;;4.62;100.00;96641.16;5012032;28;20373;-37
2023/12/21 05:01:08;;;;;;;0.10;0.10;;;5.40;99.90;;;4.67;100.00;96641.06;5013748;28;20455;-36
2023/12/21 05:03:34;;;;;;;0.20;0.20;;;5.40;99.90;;;4.64;100.00;96626.31;5010967;28;20225;-37
2023/12/21 05:06:01;;;;;;;0.98;0.20;;;5.40;99.90;;;4.61;100.00;96608.09;5003500;28;20037;-36
2023/12/21 05:08:28;;;;;;;0.10;0.10;;;5.40;99.90;;;4.66;100.00;96611.47;5006500;28;20052;-37
2023/12/21 05:10:53;;;;;;;0.10;0.10;;;5.40;99.90;;;4.61;100.00;96599.41;5002831;28;20036;-36
2023/12/21 05:13:19;;;;;;;0.20;0.20;;;5.40;99.90;;;4.68;100.00;96614.88;5004918;28;20037;-36
2023/12/21 05:15:45;;;;;;;0.20;0.10;;;5.50;99.90;;;4.72;100.00;96615.66;5000905;28;20635;-36
2023/12/21 05:18:11;;;;;;;0.10;0.10;;;5.50;99.90;;;4.70;100.00;96626.19;5002265;28;20037;-36
2023/12/21 05:20:36;;;;;;;1.08;0.20;;;5.50;99.90;;;4.80;100.00;96623.31;5004522;28;20029;-36
2023/12/21 05:23:02;;;;;;;0.10;0.10;;;5.50;99.90;;;4.76;100.00;96620.78;5002544;28;20512;-37
2023/12/21 05:25:28;;;;;;;0.20;0.15;;;5.60;99.90;;;4.74;100.00;96621.72;5012742;28;20217;-37
2023/12/21 05:27:54;;;;;;;0.43;0.20;;;5.50;99.90;;;4.73;100.00;96618.25;5004131;28;20390;-37
2023/12/21 05:30:20;;;;;;;1.00;0.22;;;5.50;99.90;;;4.76;100.00;96599.88;5003948;28;20072;-36
2023/12/21 05:32:46;;;;;;;0.30;0.20;;;5.50;99.90;;;4.73;100.00;96599.94;5003285;28;20128;-37
2023/12/21 05:35:13;;;;;;;0.10;0.10;;;5.50;99.90;;;4.65;100.00;96586.25;5006218;28;20022;-36
2023/12/21 05:37:39;;;;;;;0.25;0.17;;;5.50;99.90;;;4.76;100.00;96596.41;5004921;28;20072;-37
2023/12/21 05:40:06;;;;;;;0.50;0.20;;;5.50;99.90;;;4.75;100.00;96587.69;5000469;28;20206;-37
2023/12/21 05:42:32;;;;;;;0.70;0.10;;;5.50;99.90;;;4.77;100.00;96579.81;5004698;28;20959;-38
2023/12/21 05:44:58;;;;;;;0.00;0.00;;;5.50;99.90;;;4.79;100.00;96585.88;5007574;28;20025;-37
2023/12/21 05:47:24;;;;;;;0.10;0.10;;;5.60;99.90;;;4.81;100.00;96565.81;5006698;28;20074;-37
2023/12/21 05:49:49;;;;;;;0.10;0.10;;;5.60;99.90;;;4.86;100.00;96563.91;5002980;28;20029;-38
2023/12/21 05:52:15;;;;;;;0.30;0.20;;;5.60;99.90;;;4.83;100.00;96573.56;4986900;28;20392;-37
2023/12/21 05:54:41;;;;;;;0.10;0.10;;;5.60;99.90;;;4.82;100.00;96577.09;5002024;28;20026;-37
2023/12/21 05:57:13;;;;;;;0.10;0.10;;;5.60;99.90;;;4.77;100.00;96557.19;5000000;28;20056;-37
2023/12/21 05:59:39;;;;;;;0.05;0.05;;;5.70;99.90;;;4.88;100.00;96563.88;5006804;28;20036;-37
2023/12/21 06:02:05;;;;;;;0.32;0.20;;;5.70;99.90;;;4.84;100.00;96573.53;5000959;28;20029;-37
2023/12/21 06:04:30;;;;;;;0.20;0.20;;;5.70;99.90;;;4.89;100.00;96568.19;5007023;28;20081;-37
2023/12/21 06:06:56;;;;;;;0.20;0.20;;;5.70;99.90;;;4.87;100.00;96562.16;5001114;28;20042;-37
2023/12/21 06:09:22;;;;;;;0.32;0.30;;;5.70;99.90;;;4.86;100.00;96560.44;5002970;28;20793;-37
2023/12/21 06:11:48;;;;;;;0.10;0.10;;;5.60;99.90;;;4.88;100.00;96549.06;5006762;28;20314;-37
2023/12/21 06:14:14;;;;;;;0.38;0.20;;;5.70;99.90;;;4.82;100.00;96524.84;5010699;28;20029;-37
2023/12/21 06:16:40;;;;;;;0.22;0.20;;;5.70;99.90;;;4.88;100.00;96540.34;5012795;28;20150;-37
2023/12/21 06:19:09;;;;;;;0.10;0.10;;;5.70;99.90;;;4.88;100.00;96524.66;5010744;28;20378;-37
2023/12/21 06:21:38;;;;;;;1.17;0.25;;;5.70;99.90;;;4.98;100.00;96532.22;5015773;28;20254;-37
2023/12/21 06:24:06;;;;;;;2.38;0.20;;;5.70;99.90;;;4.83;100.00;96495.22;4996809;28;20387;-37
2023/12/21 06:26:39;;;;;;;0.10;0.10;;;5.70;99.90;;;4.97;100.00;96516.56;5015300;28;20033;-37
2023/12/21 06:29:05;;;;;;;0.13;0.10;;;5.70;99.90;;;4.95;100.00;96500.09;5008263;28;20412;-37
2023/12/21 06:31:31;;;;;;;0.10;0.10;;;5.70;99.90;;;4.99;100.00;96483.44;5014251;28;20036;-37
2023/12/21 06:33:56;;;;;;;0.85;0.10;;;5.70;99.90;;;4.97;100.00;96485.22;5011493;28;20047;-37
2023/12/21 06:36:23;;;;;;;0.47;0.20;;;5.70;99.90;;;4.96;100.00;96480.91;5014363;28;20075;-37
2023/12/21 06:38:49;;;;;;;0.10;0.10;;;5.70;99.90;;;4.98;100.00;96485.16;5009651;28;20030;-37
2023/12/21 06:41:14;;;;;;;1.05;0.20;;;5.70;99.90;;;4.98;100.00;96479.09;5011345;28;20059;-37
2023/12/21 06:43:40;;;;;;;0.10;0.10;;;5.70;99.90;;;5.02;100.00;96485.94;5015543;28;20040;-37
2023/12/21 06:46:14;;;;;;;0.20;0.20;;;5.80;99.90;;;5.03;100.00;96476.38;5011165;28;20072;-37
2023/12/21 06:48:41;;;;;;;0.20;0.20;;;5.80;99.90;;;5.04;100.00;96478.06;5004674;28;20045;-37
2023/12/21 06:51:08;;;;;;;0.10;0.10;;;5.80;99.90;;;5.03;100.00;96466.75;5009510;28;20049;-37
2023/12/21 06:53:33;;;;;;;0.30;0.20;;;5.80;99.90;;;5.03;100.00;96471.97;5010267;28;20479;-37
2023/12/21 06:56:00;;;;;;;0.10;0.10;;;5.80;99.90;;;5.07;100.00;96470.13;5011520;28;20045;-37
2023/12/21 06:58:27;;;;;;;0.65;0.20;;;5.80;99.90;;;5.11;100.00;96472.59;5014885;28;20029;-36
2023/12/21 07:00:53;;;;;;;0.10;0.10;;;5.80;99.90;;;5.12;100.00;96474.31;5011749;28;20061;-37
2023/12/21 07:03:19;;;;;;;0.22;0.10;;;5.90;99.90;;;5.14;100.00;96448.97;5011055;28;20134;-36
2023/12/21 07:05:45;;;;;;;0.28;0.10;;;5.90;99.90;;;5.20;100.00;96481.06;5012872;28;20512;-36
2023/12/21 07:08:10;;;;;;;0.20;0.15;;;6.00;99.90;;;5.16;100.00;96441.94;5008255;28;20167;-36
2023/12/21 07:10:36;;;;;;;0.30;0.20;;;6.00;99.90;;;5.31;100.00;96461.56;5011166;28;20425;-36
2023/12/21 07:13:02;;;;;;;0.50;0.20;;;6.10;99.90;;;5.33;100.00;96466.75;5012280;28;20048;-36
2023/12/21 07:15:27;;;;;;;0.30;0.30;;;6.10;99.90;;;5.31;100.00;96453.72;5013819;28;20104;-36
2023/12/21 07:17:53;;;;;;;0.85;0.20;;;6.10;99.90;;;5.46;100.00;96464.59;5009664;28;20044;-37
2023/12/21 07:20:24;;;;;;;0.10;0.10;;;6.20;99.90;;;5.42;100.00;96445.53;4990103;28;20592;-36
2023/12/21 07:22:50;;;;;;;0.47;0.20;;;6.20;99.90;;;5.38;100.00;96443.03;5014040;28;20036;-36
2023/12/21 07:25:16;;;;;;;0.40;0.20;;;6.20;99.90;;;5.40;100.00;96444.72;5008131;28;20026;-36
2023/12/21 07:27:42;;;;;;;1.33;0.30;;;6.20;99.90;;;5.44;100.00;96446.34;5013863;28;20355;-37
2023/12/21 07:30:08;;;;;;;0.32;0.20;;;6.20;99.90;;;5.48;100.00;96442.69;5009818;28;20076;-37
2023/12/21 07:32:34;;;;;;;0.40;0.20;;;6.20;99.90;;;5.49;100.00;96447.03;5011386;28;20033;-37
2023/12/21 07:35:00;;;;;;;0.38;0.10;;;6.30;99.90;;;5.48;100.00;96432.25;4993724;28;20516;-37
2023/12/21 07:37:26;;;;;;;0.20;0.10;;;6.20;99.90;;;5.52;100.00;96438.22;5011360;28;20382;-36
2023/12/21 07:39:52;;;;;;;6.43;2.83;;;6.20;99.90;;;5.53;100.00;96440.81;5007672;28;20033;-36
2023/12/21 07:42:17;;;;;;;0.80;0.30;;;6.30;99.90;;;5.52;100.00;96425.16;5012172;28;20033;-36
2023/12/21 07:44:44;;;;;;;1.08;0.22;;;6.30;99.90;;;5.52;100.00;96428.63;5013222;28;20108;-36
2023/12/21 07:47:09;;;;;;;0.90;0.20;;;6.30;99.90;;;5.55;100.00;96433.75;5005964;28;20036;-37
2023/12/21 07:49:35;;;;;;;0.50;0.15;;;6.30;99.90;;;5.54;100.00;96424.22;5010142;28;20414;-37
2023/12/21 07:52:01;;;;;;;0.47;0.20;;;6.30;99.90;;;5.57;100.00;96430.25;5008511;28;20517;-37
2023/12/21 07:54:27;;;;;;;0.38;0.30;;;6.30;99.90;;;5.50;100.00;96414.75;5009402;28;20121;-37
2023/12/21 07:56:52;;;;;;;0.20;0.20;;;6.30;99.90;;;5.57;100.00;96419.78;5010201;28;20116;-39
2023/12/21 07:59:19;;;;;;;0.77;0.20;;;6.30;99.90;;;5.64;100.00;96410.84;5011690;28;20034;-36
2023/12/21 08:01:46;;;;;;;0.03;0.03;;;6.40;99.90;;;5.51;100.00;96397.31;5007462;28;20025;-37
2023/12/21 08:04:12;;;;;;;0.20;0.20;;;6.40;99.90;;;5.60;100.00;96404.84;5009844;28;20025;-36
2023/12/21 08:06:38;;;;;;;0.08;0.08;;;6.30;99.90;;;5.59;100.00;96403.13;5013514;28;20033;-36
2023/12/21 08:09:03;;;;;;;0.20;0.20;;;6.30;99.90;;;5.63;100.00;96407.34;5009463;28;20401;-37
2023/12/21 08:11:29;;;;;;;0.30;0.20;;;6.40;99.90;;;5.67;100.00;96416.81;5009642;28;20060;-38
2023/12/21 08:13:55;;;;;;;0.13;0.13;;;6.40;99.90;;;5.62;100.00;96408.25;5008895;28;20383;-37
2023/12/21 08:16:20;;;;;;;2.10;0.20;;;6.40;99.90;;;5.69;100.00;96414.16;5011878;28;20034;-36
2023/12/21 08:18:46;;;;;;;1.02;0.17;;;6.50;99.90;;;5.69;100.00;96404.53;5008101;28;20179;-36
2023/12/21 08:21:12;;;;;;;0.63;0.22;;;6.50;99.90;;;5.69;100.00;96391.47;5010876;28;20033;-36
2023/12/21 08:23:39;;;;;;;0.10;0.10;;;6.50;99.90;;;5.75;100.00;96403.47;5013233;28;20060;-36
2023/12/21 08:26:06;;;;;;;0.20;0.13;;;6.50;99.90;;;5.67;100.00;96380.19;4990646;28;20041;-36
2023/12/21 08:28:33;;;;;;;0.38;0.30;;;6.50;99.90;;;5.77;100.00;96385.97;4995778;28;20036;-37
2023/12/21 08:30:59;;;;;;;0.20;0.20;;;6.50;99.90;;;5.82;100.00;96380.59;5008681;28;20478;-37
2023/12/21 08:33:25;;;;;;;0.38;0.30;;;6.60;99.90;;;5.87;100.00;96389.13;5012920;28;20034;-37
2023/12/21 08:35:51;;;;;;;0.15;0.15;;;6.60;99.90;;;5.90;100.00;96374.19;5015018;28;20402;-37
2023/12/21 08:38:17;;;;;;;0.30;0.17;;;6.70;99.90;;;5.92;100.00;96385.44;5016631;28;20469;-37
2023/12/21 08:40:43;;;;;;;0.40;0.20;;;6.60;99.90;;;5.87;100.00;96382.13;5021262;28;20045;-38
2023/12/21 08:43:09;;;;;;;1.45;0.17;;;6.70;99.90;;;5.95;100.00;96381.84;5017200;28;20041;-38
2023/12/21 08:45:34;;;;;;;0.10;0.10;;;6.70;99.90;;;5.98;100.00;96386.19;5016493;28;20034;-38
2023/12/21 08:48:00;;;;;;;0.20;0.10;;;6.70;99.90;;;5.90;100.00;96376.78;5014990;28;20905;-37
2023/12/21 08:50:26;;;;;;;0.70;0.17;;;6.80;99.90;;;6.05;100.00;96391.13;4999537;28;20485;-37
2023/12/21 08:52:51;;;;;;;0.73;0.20;;;6.80;99.90;;;6.06;100.00;96386.75;5017361;28;20029;-38
2023/12/21 08:55:17;;;;;;;0.10;0.10;;;6.80;99.90;;;6.04;100.00;96388.56;4995846;28;20056;-38
2023/12/21 08:57:43;;;;;;;0.20;0.20;;;6.80;99.90;;;6.07;100.00;96372.75;5000484;28;20032;-38
2023/12/21 09:00:13;;;;;;;0.30;0.30;;;6.80;99.90;;;6.08;100.00;96374.44;5007376;28;20657;-37
2023/12/21 09:02:39;;;;;;;0.40;0.20;;;6.80;99.90;;;6.08;100.00;96374.44;5017420;28;20033;-37
2023/12/21 09:05:06;;;;;;;1.52;0.30;;;6.90;99.90;;;6.07;100.00;96378.84;5009063;28;20456;-37
2023/12/21 09:07:33;;;;;;;1.13;0.20;;;6.90;99.90;;;6.08;100.00;96384.91;5016356;28;20037;-37
2023/12/21 09:10:00;;;;;;;0.43;0.20;;;6.80;99.90;;;6.10;100.00;96370.88;5014165;28;20065;-40
2023/12/21 09:12:25;;;;;;;0.10;0.10;;;6.90;99.90;;;6.13;100.00;96356.81;5013239;28;20048;-37
2023/12/21 09:14:52;;;;;;;0.45;0.20;;;6.90;99.90;;;6.10;100.00;96331.63;5014160;28;20025;-37
2023/12/21 09:17:18;;;;;;;1.30;0.17;;;6.90;99.90;;;6.24;100.00;96335.50;5011811;28;20034;-37
2023/12/21 09:19:44;;;;;;;0.40;0.17;;;7.00;99.90;;;6.21;100.00;96344.31;5011912;28;20038;-37
2023/12/21 09:22:10;;;;;;;0.10;0.10;;;7.00;99.90;;;6.23;100.00;96324.19;4994974;28;20481;-37
2023/12/21 09:24:38;;;;;;;0.10;0.10;;;7.00;99.90;;;6.27;100.00;96323.13;4994642;28;20046;-37
2023/12/21 09:27:04;;;;;;;0.47;0.20;;;7.00;99.90;;;6.31;100.00;96309.00;5010089;28;20034;-37
2023/12/21 09:29:30;;;;;;;0.10;0.10;;;7.00;99.90;;;6.34;100.00;96315.91;5014865;28;20111;-37
2023/12/21 09:31:56;;;;;;;0.10;0.10;;;7.10;99.90;;;6.28;100.00;96285.59;5010368;28;20045;-36
2023/12/21 09:34:22;;;;;;;0.17;0.17;;;7.10;99.90;;;6.38;100.00;96303.56;5009580;28;20067;-37
2023/12/21 09:36:48;;;;;;;0.38;0.17;;;7.20;99.90;;;6.44;100.00;96305.94;5013024;28;20131;-37
2023/12/21 09:39:14;;;;;;;0.10;0.10;;;7.20;99.90;;;6.48;100.00;96299.69;5007055;28;20033;-37
2023/12/21 09:41:40;;;;;;;0.10;0.10;;;7.20;99.90;;;6.49;100.00;96297.00;5011763;28;20119;-37
2023/12/21 09:44:06;;;;;;;1.10;0.20;;;7.30;99.90;;;6.53;100.00;96300.34;5005510;28;20506;-38
2023/12/21 09:46:39;;;;;;;0.17;0.15;;;7.30;99.90;;;6.51;100.00;96283.84;5011343;28;20033;-37
2023/12/21 09:49:09;;;;;;;0.35;0.15;;;7.30;99.90;;;6.56;100.00;96273.19;5010540;28;20057;-37
2023/12/21 09:51:37;;;;;;;0.35;0.20;;;7.30;99.90;;;6.61;100.00;96255.53;5011691;28;20025;-37
2023/12/21 09:54:04;;;;;;;0.15;0.10;;;7.30;99.90;;;6.75;100.00;96266.31;5006738;28;20036;-37
2023/12/21 09:56:31;;;;;;;0.30;0.20;;;7.40;99.90;;;6.75;100.00;96247.97;5016649;28;20367;-37
2023/12/21 09:58:58;;;;;;;0.20;0.15;;;7.50;99.90;;;6.79;100.00;96238.22;5009126;28;20040;-37
2023/12/21 10:01:24;;;;;;;0.52;0.10;;;7.50;99.90;;;6.92;100.00;96239.41;4991820;28;20058;-37
2023/12/21 10:03:49;;;;;;;0.30;0.10;;;7.60;99.90;;;6.92;100.00;96244.66;5011221;28;20029;-37
2023/12/21 10:06:15;;;;;;;0.15;0.10;;;7.70;99.90;;;6.93;100.00;96262.09;5009751;28;20033;-37
2023/12/21 10:08:42;;;;;;;0.13;0.10;;;7.70;99.90;;;6.97;100.00;96268.06;5012907;28;20039;-38
2023/12/21 10:11:08;;;;;;;0.65;0.20;;;7.70;99.90;;;6.90;100.00;96269.25;5004590;28;20268;-37
2023/12/21 10:13:35;;;;;;;0.85;0.20;;;7.70;99.90;;;6.94;100.00;96260.31;5011183;28;20051;-37
2023/12/21 10:16:04;;;;;;;0.77;0.20;;;7.70;99.90;;;6.96;100.00;96238.38;5010780;28;20434;-37
2023/12/21 10:18:32;;;;;;;0.60;0.20;;;7.70;99.90;;;7.01;100.00;96230.34;5004926;28;20040;-38
2023/12/21 10:20:59;;;;;;;0.43;0.20;;;7.70;99.90;;;7.02;100.00;96208.47;5012498;28;20033;-38